sensor_id;sensor_type;location;lat;lon;timestamp;P1;durP1;ratioP1;P2;durP2;ratioP2
75297;SDS011;63896;45.990;18.688;2023-02-24T00:00:13;28.80;;;14.43;;
75297;SDS011;63896;45.990;18.688;2023-02-24T00:03:35;38.07;;;15.30;;
75297;SDS011;63896;45.990;18.688;2023-02-24T00:06:39;35.70;;;15.73;;
75297;SDS011;63896;45.990;18.688;2023-02-24T00:09:45;38.55;;;16.45;;
75297;SDS011;63896;45.990;18.688;2023-02-24T00:12:48;34.45;;;15.45;;
75297;SDS011;63896;45.990;18.688;2023-02-24T00:15:59;33.78;;;15.85;;
75297;SDS011;63896;45.990;18.688;2023-02-24T00:19:04;30.95;;;15.00;;
75297;SDS011;63896;45.990;18.688;2023-02-24T00:22:09;30.63;;;15.07;;
75297;SDS011;63896;45.990;18.688;2023-02-24T00:25:12;34.60;;;14.63;;
75297;SDS011;63896;45.990;18.688;2023-02-24T00:28:15;29.02;;;14.57;;
75297;SDS011;63896;45.990;18.688;2023-02-24T00:31:18;29.17;;;13.40;;
75297;SDS011;63896;45.990;18.688;2023-02-24T00:34:22;28.05;;;12.93;;
75297;SDS011;63896;45.990;18.688;2023-02-24T00:37:25;26.20;;;12.63;;
75297;SDS011;63896;45.990;18.688;2023-02-24T00:40:28;24.45;;;11.68;;
75297;SDS011;63896;45.990;18.688;2023-02-24T00:43:33;24.50;;;11.45;;
75297;SDS011;63896;45.990;18.688;2023-02-24T00:46:42;25.48;;;11.60;;
75297;SDS011;63896;45.990;18.688;2023-02-24T00:49:46;21.98;;;11.45;;
75297;SDS011;63896;45.990;18.688;2023-02-24T00:52:51;22.13;;;11.77;;
75297;SDS011;63896;45.990;18.688;2023-02-24T00:55:58;24.08;;;12.07;;
75297;SDS011;63896;45.990;18.688;2023-02-24T00:59:02;27.65;;;13.40;;
75297;SDS011;63896;45.990;18.688;2023-02-24T01:02:06;25.27;;;13.35;;
75297;SDS011;63896;45.990;18.688;2023-02-24T01:05:10;27.98;;;13.35;;
75297;SDS011;63896;45.990;18.688;2023-02-24T01:08:14;28.40;;;13.30;;
75297;SDS011;63896;45.990;18.688;2023-02-24T01:11:24;31.92;;;14.48;;
75297;SDS011;63896;45.990;18.688;2023-02-24T01:14:48;32.88;;;14.52;;
75297;SDS011;63896;45.990;18.688;2023-02-24T01:17:53;32.08;;;15.02;;
75297;SDS011;63896;45.990;18.688;2023-02-24T01:20:57;32.10;;;14.43;;
75297;SDS011;63896;45.990;18.688;2023-02-24T01:24:00;36.87;;;15.77;;
75297;SDS011;63896;45.990;18.688;2023-02-24T01:27:03;30.38;;;14.35;;
75297;SDS011;63896;45.990;18.688;2023-02-24T01:30:12;28.80;;;13.85;;
75297;SDS011;63896;45.990;18.688;2023-02-24T01:33:17;34.58;;;14.18;;
75297;SDS011;63896;45.990;18.688;2023-02-24T01:36:23;30.23;;;14.13;;
75297;SDS011;63896;45.990;18.688;2023-02-24T01:39:28;33.80;;;13.90;;
75297;SDS011;63896;45.990;18.688;2023-02-24T01:42:31;30.27;;;13.90;;
75297;SDS011;63896;45.990;18.688;2023-02-24T01:45:36;30.05;;;14.00;;
75297;SDS011;63896;45.990;18.688;2023-02-24T01:48:43;26.67;;;14.05;;
75297;SDS011;63896;45.990;18.688;2023-02-24T01:51:46;25.13;;;12.73;;
75297;SDS011;63896;45.990;18.688;2023-02-24T01:54:59;26.33;;;13.57;;
75297;SDS011;63896;45.990;18.688;2023-02-24T01:58:06;29.60;;;13.60;;
75297;SDS011;63896;45.990;18.688;2023-02-24T02:01:17;26.38;;;13.02;;
75297;SDS011;63896;45.990;18.688;2023-02-24T02:07:30;28.87;;;13.60;;
75297;SDS011;63896;45.990;18.688;2023-02-24T02:10:34;26.77;;;14.13;;
75297;SDS011;63896;45.990;18.688;2023-02-24T02:13:42;27.88;;;14.20;;
75297;SDS011;63896;45.990;18.688;2023-02-24T02:33:20;28.17;;;14.10;;
75297;SDS011;63896;45.990;18.688;2023-02-24T02:37:13;24.95;;;12.75;;
75297;SDS011;63896;45.990;18.688;2023-02-24T02:40:19;28.88;;;12.38;;
75297;SDS011;63896;45.990;18.688;2023-02-24T02:43:31;25.87;;;12.53;;
75297;SDS011;63896;45.990;18.688;2023-02-24T02:50:00;29.90;;;13.80;;
75297;SDS011;63896;45.990;18.688;2023-02-24T02:53:28;30.65;;;13.75;;
75297;SDS011;63896;45.990;18.688;2023-02-24T02:56:43;26.10;;;13.57;;
75297;SDS011;63896;45.990;18.688;2023-02-24T02:59:57;27.10;;;13.73;;
75297;SDS011;63896;45.990;18.688;2023-02-24T03:03:13;33.28;;;15.02;;
75297;SDS011;63896;45.990;18.688;2023-02-24T03:06:23;33.15;;;14.82;;
75297;SDS011;63896;45.990;18.688;2023-02-24T03:09:30;29.70;;;14.25;;
75297;SDS011;63896;45.990;18.688;2023-02-24T03:12:37;31.30;;;14.20;;
75297;SDS011;63896;45.990;18.688;2023-02-24T03:15:42;31.47;;;14.97;;
75297;SDS011;63896;45.990;18.688;2023-02-24T03:18:50;34.95;;;15.98;;
75297;SDS011;63896;45.990;18.688;2023-02-24T03:22:03;35.65;;;16.17;;
75297;SDS011;63896;45.990;18.688;2023-02-24T03:25:13;36.10;;;17.40;;
75297;SDS011;63896;45.990;18.688;2023-02-24T03:28:37;37.00;;;18.00;;
75297;SDS011;63896;45.990;18.688;2023-02-24T03:34:54;33.63;;;17.05;;
75297;SDS011;63896;45.990;18.688;2023-02-24T03:38:03;37.75;;;17.50;;
75297;SDS011;63896;45.990;18.688;2023-02-24T03:41:08;36.60;;;17.98;;
75297;SDS011;63896;45.990;18.688;2023-02-24T03:44:15;36.97;;;18.80;;
75297;SDS011;63896;45.990;18.688;2023-02-24T03:47:17;34.23;;;18.03;;
75297;SDS011;63896;45.990;18.688;2023-02-24T03:50:23;34.60;;;16.50;;
75297;SDS011;63896;45.990;18.688;2023-02-24T04:04:17;41.37;;;17.40;;
75297;SDS011;63896;45.990;18.688;2023-02-24T04:11:08;38.97;;;18.73;;
75297;SDS011;63896;45.990;18.688;2023-02-24T04:14:28;36.33;;;18.55;;
75297;SDS011;63896;45.990;18.688;2023-02-24T04:20:42;40.67;;;20.10;;
75297;SDS011;63896;45.990;18.688;2023-02-24T04:23:47;41.58;;;20.00;;
75297;SDS011;63896;45.990;18.688;2023-02-24T04:26:51;185.18;;;69.97;;
75297;SDS011;63896;45.990;18.688;2023-02-24T04:30:01;89.55;;;34.50;;
75297;SDS011;63896;45.990;18.688;2023-02-24T04:33:07;150.43;;;50.40;;
75297;SDS011;63896;45.990;18.688;2023-02-24T04:36:11;55.03;;;25.47;;
75297;SDS011;63896;45.990;18.688;2023-02-24T04:39:16;52.00;;;23.75;;
75297;SDS011;63896;45.990;18.688;2023-02-24T04:42:23;82.85;;;30.67;;
75297;SDS011;63896;45.990;18.688;2023-02-24T04:45:28;191.82;;;55.30;;
75297;SDS011;63896;45.990;18.688;2023-02-24T04:48:33;300.13;;;78.70;;
75297;SDS011;63896;45.990;18.688;2023-02-24T04:51:37;198.50;;;51.53;;
75297;SDS011;63896;45.990;18.688;2023-02-24T04:54:44;226.18;;;54.67;;
75297;SDS011;63896;45.990;18.688;2023-02-24T04:57:50;100.15;;;32.47;;
75297;SDS011;63896;45.990;18.688;2023-02-24T05:00:54;141.63;;;40.33;;
75297;SDS011;63896;45.990;18.688;2023-02-24T05:03:58;60.80;;;23.50;;
75297;SDS011;63896;45.990;18.688;2023-02-24T05:07:01;86.10;;;29.10;;
75297;SDS011;63896;45.990;18.688;2023-02-24T05:10:04;63.63;;;22.60;;
75297;SDS011;63896;45.990;18.688;2023-02-24T05:13:10;36.25;;;16.98;;
75297;SDS011;63896;45.990;18.688;2023-02-24T05:16:16;34.35;;;16.67;;
75297;SDS011;63896;45.990;18.688;2023-02-24T05:19:21;34.17;;;16.07;;
75297;SDS011;63896;45.990;18.688;2023-02-24T05:22:43;40.77;;;17.97;;
75297;SDS011;63896;45.990;18.688;2023-02-24T05:25:46;39.03;;;18.30;;
75297;SDS011;63896;45.990;18.688;2023-02-24T05:28:50;40.40;;;17.38;;
75297;SDS011;63896;45.990;18.688;2023-02-24T05:31:55;41.17;;;18.88;;
75297;SDS011;63896;45.990;18.688;2023-02-24T05:35:01;43.33;;;20.00;;
75297;SDS011;63896;45.990;18.688;2023-02-24T05:38:04;45.50;;;19.70;;
75297;SDS011;63896;45.990;18.688;2023-02-24T05:41:10;41.05;;;20.17;;
75297;SDS011;63896;45.990;18.688;2023-02-24T05:44:20;41.17;;;20.17;;
75297;SDS011;63896;45.990;18.688;2023-02-24T05:47:24;52.17;;;21.42;;
75297;SDS011;63896;45.990;18.688;2023-02-24T05:50:28;55.40;;;24.20;;
75297;SDS011;63896;45.990;18.688;2023-02-24T05:53:31;58.03;;;25.00;;
75297;SDS011;63896;45.990;18.688;2023-02-24T05:56:35;61.40;;;24.63;;
75297;SDS011;63896;45.990;18.688;2023-02-24T05:59:40;49.10;;;20.05;;
75297;SDS011;63896;45.990;18.688;2023-02-24T06:02:44;40.72;;;18.77;;
75297;SDS011;63896;45.990;18.688;2023-02-24T06:05:52;41.47;;;18.67;;
75297;SDS011;63896;45.990;18.688;2023-02-24T06:08:55;38.07;;;17.90;;
75297;SDS011;63896;45.990;18.688;2023-02-24T06:12:00;38.75;;;19.48;;
75297;SDS011;63896;45.990;18.688;2023-02-24T06:15:03;50.42;;;24.65;;
75297;SDS011;63896;45.990;18.688;2023-02-24T06:18:09;48.08;;;23.58;;
75297;SDS011;63896;45.990;18.688;2023-02-24T06:21:13;53.83;;;26.20;;
75297;SDS011;63896;45.990;18.688;2023-02-24T06:24:16;52.07;;;26.20;;
75297;SDS011;63896;45.990;18.688;2023-02-24T06:27:20;69.60;;;30.27;;
75297;SDS011;63896;45.990;18.688;2023-02-24T06:30:26;70.28;;;35.38;;
75297;SDS011;63896;45.990;18.688;2023-02-24T06:33:29;64.30;;;31.42;;
75297;SDS011;63896;45.990;18.688;2023-02-24T06:36:32;53.88;;;26.92;;
75297;SDS011;63896;45.990;18.688;2023-02-24T06:39:35;45.17;;;24.73;;
75297;SDS011;63896;45.990;18.688;2023-02-24T06:42:38;49.28;;;24.58;;
75297;SDS011;63896;45.990;18.688;2023-02-24T06:45:41;57.80;;;28.80;;
75297;SDS011;63896;45.990;18.688;2023-02-24T06:48:45;56.08;;;27.42;;
75297;SDS011;63896;45.990;18.688;2023-02-24T06:51:50;52.70;;;28.33;;
75297;SDS011;63896;45.990;18.688;2023-02-24T06:54:54;47.70;;;27.30;;
75297;SDS011;63896;45.990;18.688;2023-02-24T06:57:58;66.43;;;32.50;;
75297;SDS011;63896;45.990;18.688;2023-02-24T07:01:08;58.75;;;33.75;;
75297;SDS011;63896;45.990;18.688;2023-02-24T07:04:18;67.82;;;38.35;;
75297;SDS011;63896;45.990;18.688;2023-02-24T07:07:21;63.50;;;36.37;;
75297;SDS011;63896;45.990;18.688;2023-02-24T07:10:24;57.13;;;32.13;;
75297;SDS011;63896;45.990;18.688;2023-02-24T07:13:28;53.28;;;27.77;;
75297;SDS011;63896;45.990;18.688;2023-02-24T07:16:34;42.17;;;23.23;;
75297;SDS011;63896;45.990;18.688;2023-02-24T07:19:38;47.38;;;23.35;;
75297;SDS011;63896;45.990;18.688;2023-02-24T07:22:40;36.03;;;20.90;;
75297;SDS011;63896;45.990;18.688;2023-02-24T07:25:48;42.70;;;21.70;;
75297;SDS011;63896;45.990;18.688;2023-02-24T07:28:55;45.08;;;25.05;;
75297;SDS011;63896;45.990;18.688;2023-02-24T07:31:59;40.22;;;23.70;;
75297;SDS011;63896;45.990;18.688;2023-02-24T07:35:05;47.67;;;24.20;;
75297;SDS011;63896;45.990;18.688;2023-02-24T07:38:08;39.95;;;23.00;;
75297;SDS011;63896;45.990;18.688;2023-02-24T07:41:12;43.00;;;22.67;;
75297;SDS011;63896;45.990;18.688;2023-02-24T07:44:16;39.30;;;22.15;;
75297;SDS011;63896;45.990;18.688;2023-02-24T07:47:20;43.60;;;23.13;;
75297;SDS011;63896;45.990;18.688;2023-02-24T07:50:24;42.53;;;23.23;;
75297;SDS011;63896;45.990;18.688;2023-02-24T07:53:29;43.33;;;23.52;;
75297;SDS011;63896;45.990;18.688;2023-02-24T07:56:32;41.80;;;22.33;;
75297;SDS011;63896;45.990;18.688;2023-02-24T07:59:35;39.10;;;22.55;;
75297;SDS011;63896;45.990;18.688;2023-02-24T08:02:47;47.72;;;22.75;;
75297;SDS011;63896;45.990;18.688;2023-02-24T08:05:57;36.20;;;23.02;;
75297;SDS011;63896;45.990;18.688;2023-02-24T08:09:18;43.83;;;24.55;;
75297;SDS011;63896;45.990;18.688;2023-02-24T08:12:50;36.10;;;22.97;;
75297;SDS011;63896;45.990;18.688;2023-02-24T08:15:58;36.42;;;23.60;;
75297;SDS011;63896;45.990;18.688;2023-02-24T08:19:01;39.53;;;23.15;;
75297;SDS011;63896;45.990;18.688;2023-02-24T08:22:06;34.08;;;21.45;;
75297;SDS011;63896;45.990;18.688;2023-02-24T08:25:33;33.05;;;21.17;;
75297;SDS011;63896;45.990;18.688;2023-02-24T08:28:38;36.83;;;21.47;;
75297;SDS011;63896;45.990;18.688;2023-02-24T08:31:45;30.38;;;20.48;;
75297;SDS011;63896;45.990;18.688;2023-02-24T08:34:50;33.42;;;20.75;;
75297;SDS011;63896;45.990;18.688;2023-02-24T08:38:02;30.13;;;21.20;;
75297;SDS011;63896;45.990;18.688;2023-02-24T08:41:16;26.55;;;17.92;;
75297;SDS011;63896;45.990;18.688;2023-02-24T08:44:22;31.33;;;18.37;;
75297;SDS011;63896;45.990;18.688;2023-02-24T08:47:28;23.17;;;16.63;;
75297;SDS011;63896;45.990;18.688;2023-02-24T08:50:38;27.25;;;18.05;;
75297;SDS011;63896;45.990;18.688;2023-02-24T08:53:42;21.60;;;14.27;;
75297;SDS011;63896;45.990;18.688;2023-02-24T08:56:46;26.25;;;16.27;;
75297;SDS011;63896;45.990;18.688;2023-02-24T08:59:57;24.13;;;14.93;;
75297;SDS011;63896;45.990;18.688;2023-02-24T09:03:00;24.05;;;15.43;;
75297;SDS011;63896;45.990;18.688;2023-02-24T09:06:09;21.55;;;15.27;;
75297;SDS011;63896;45.990;18.688;2023-02-24T09:09:16;23.58;;;15.65;;
75297;SDS011;63896;45.990;18.688;2023-02-24T09:12:25;17.75;;;13.15;;
75297;SDS011;63896;45.990;18.688;2023-02-24T09:15:31;20.77;;;12.20;;
75297;SDS011;63896;45.990;18.688;2023-02-24T09:18:42;22.27;;;10.98;;
75297;SDS011;63896;45.990;18.688;2023-02-24T09:21:45;16.40;;;9.95;;
75297;SDS011;63896;45.990;18.688;2023-02-24T09:24:51;16.00;;;9.88;;
75297;SDS011;63896;45.990;18.688;2023-02-24T09:28:18;14.27;;;9.13;;
75297;SDS011;63896;45.990;18.688;2023-02-24T09:31:26;11.37;;;5.80;;
75297;SDS011;63896;45.990;18.688;2023-02-24T09:34:42;10.77;;;6.60;;
75297;SDS011;63896;45.990;18.688;2023-02-24T09:37:46;17.65;;;6.72;;
75297;SDS011;63896;45.990;18.688;2023-02-24T09:40:48;11.57;;;6.78;;
75297;SDS011;63896;45.990;18.688;2023-02-24T09:43:52;17.92;;;6.75;;
75297;SDS011;63896;45.990;18.688;2023-02-24T09:47:22;13.57;;;6.17;;
75297;SDS011;63896;45.990;18.688;2023-02-24T09:50:59;10.60;;;6.68;;
75297;SDS011;63896;45.990;18.688;2023-02-24T09:54:11;14.43;;;6.85;;
75297;SDS011;63896;45.990;18.688;2023-02-24T09:57:20;13.48;;;6.95;;
75297;SDS011;63896;45.990;18.688;2023-02-24T10:00:27;17.15;;;7.80;;
75297;SDS011;63896;45.990;18.688;2023-02-24T10:03:38;12.10;;;6.67;;
75297;SDS011;63896;45.990;18.688;2023-02-24T10:07:02;10.38;;;6.70;;
75297;SDS011;63896;45.990;18.688;2023-02-24T10:10:19;13.48;;;6.20;;
75297;SDS011;63896;45.990;18.688;2023-02-24T10:13:29;11.35;;;6.10;;
75297;SDS011;63896;45.990;18.688;2023-02-24T10:16:38;8.02;;;5.68;;
75297;SDS011;63896;45.990;18.688;2023-02-24T10:19:44;15.07;;;5.93;;
75297;SDS011;63896;45.990;18.688;2023-02-24T10:23:06;12.05;;;5.47;;
75297;SDS011;63896;45.990;18.688;2023-02-24T10:30:06;13.98;;;5.88;;
75297;SDS011;63896;45.990;18.688;2023-02-24T10:33:23;13.57;;;5.60;;
75297;SDS011;63896;45.990;18.688;2023-02-24T10:36:32;14.40;;;5.83;;
75297;SDS011;63896;45.990;18.688;2023-02-24T10:39:39;8.82;;;5.13;;
75297;SDS011;63896;45.990;18.688;2023-02-24T10:42:45;9.80;;;5.30;;
75297;SDS011;63896;45.990;18.688;2023-02-24T10:45:50;9.95;;;5.15;;
75297;SDS011;63896;45.990;18.688;2023-02-24T10:49:07;9.32;;;4.90;;
75297;SDS011;63896;45.990;18.688;2023-02-24T10:52:13;11.27;;;4.90;;
75297;SDS011;63896;45.990;18.688;2023-02-24T10:55:40;12.23;;;4.80;;
75297;SDS011;63896;45.990;18.688;2023-02-24T10:58:46;9.25;;;4.88;;
75297;SDS011;63896;45.990;18.688;2023-02-24T11:01:59;13.40;;;4.93;;
75297;SDS011;63896;45.990;18.688;2023-02-24T11:05:25;11.93;;;5.13;;
75297;SDS011;63896;45.990;18.688;2023-02-24T11:08:45;8.80;;;5.03;;
75297;SDS011;63896;45.990;18.688;2023-02-24T11:12:12;10.27;;;4.63;;
75297;SDS011;63896;45.990;18.688;2023-02-24T11:15:37;11.20;;;4.20;;
75297;SDS011;63896;45.990;18.688;2023-02-24T11:19:03;9.77;;;4.57;;
75297;SDS011;63896;45.990;18.688;2023-02-24T11:22:30;24.33;;;5.60;;
75297;SDS011;63896;45.990;18.688;2023-02-24T11:25:40;12.97;;;5.83;;
75297;SDS011;63896;45.990;18.688;2023-02-24T11:41:46;10.10;;;5.30;;
75297;SDS011;63896;45.990;18.688;2023-02-24T11:48:09;14.27;;;5.35;;
75297;SDS011;63896;45.990;18.688;2023-02-24T11:51:35;18.60;;;4.63;;
75297;SDS011;63896;45.990;18.688;2023-02-24T11:54:43;9.57;;;5.07;;
75297;SDS011;63896;45.990;18.688;2023-02-24T11:57:54;10.50;;;4.67;;
75297;SDS011;63896;45.990;18.688;2023-02-24T12:04:22;9.38;;;4.45;;
75297;SDS011;63896;45.990;18.688;2023-02-24T12:11:15;18.60;;;5.30;;
75297;SDS011;63896;45.990;18.688;2023-02-24T12:21:02;9.25;;;4.47;;
75297;SDS011;63896;45.990;18.688;2023-02-24T12:24:11;11.07;;;4.80;;
75297;SDS011;63896;45.990;18.688;2023-02-24T12:30:46;15.63;;;4.60;;
75297;SDS011;63896;45.990;18.688;2023-02-24T12:43:53;13.52;;;4.85;;
75297;SDS011;63896;45.990;18.688;2023-02-24T12:53:21;15.38;;;5.63;;
75297;SDS011;63896;45.990;18.688;2023-02-24T12:59:39;14.30;;;4.97;;
75297;SDS011;63896;45.990;18.688;2023-02-24T13:02:46;14.87;;;4.07;;
75297;SDS011;63896;45.990;18.688;2023-02-24T13:05:58;13.57;;;3.95;;
75297;SDS011;63896;45.990;18.688;2023-02-24T13:09:45;12.15;;;4.40;;
75297;SDS011;63896;45.990;18.688;2023-02-24T13:16:27;18.90;;;4.78;;
75297;SDS011;63896;45.990;18.688;2023-02-24T13:19:32;13.33;;;4.93;;
75297;SDS011;63896;45.990;18.688;2023-02-24T13:22:38;11.05;;;4.72;;
75297;SDS011;63896;45.990;18.688;2023-02-24T13:25:48;16.85;;;4.72;;
75297;SDS011;63896;45.990;18.688;2023-02-24T13:28:57;11.70;;;4.30;;
75297;SDS011;63896;45.990;18.688;2023-02-24T13:32:01;18.13;;;4.47;;
75297;SDS011;63896;45.990;18.688;2023-02-24T13:36:06;12.40;;;4.27;;
75297;SDS011;63896;45.990;18.688;2023-02-24T13:41:37;13.77;;;4.90;;
75297;SDS011;63896;45.990;18.688;2023-02-24T13:44:47;11.45;;;4.68;;
75297;SDS011;63896;45.990;18.688;2023-02-24T13:58:01;13.43;;;3.97;;
75297;SDS011;63896;45.990;18.688;2023-02-24T14:01:13;16.75;;;4.75;;
75297;SDS011;63896;45.990;18.688;2023-02-24T14:07:32;15.40;;;4.60;;
75297;SDS011;63896;45.990;18.688;2023-02-24T14:10:42;14.75;;;4.65;;
75297;SDS011;63896;45.990;18.688;2023-02-24T14:13:48;9.32;;;4.43;;
75297;SDS011;63896;45.990;18.688;2023-02-24T14:16:53;16.63;;;4.90;;
75297;SDS011;63896;45.990;18.688;2023-02-24T14:26:27;17.85;;;4.63;;
75297;SDS011;63896;45.990;18.688;2023-02-24T14:29:35;15.55;;;3.88;;
75297;SDS011;63896;45.990;18.688;2023-02-24T14:32:46;10.95;;;4.13;;
75297;SDS011;63896;45.990;18.688;2023-02-24T14:35:50;19.90;;;5.30;;
75297;SDS011;63896;45.990;18.688;2023-02-24T14:42:30;21.58;;;4.90;;
75297;SDS011;63896;45.990;18.688;2023-02-24T14:45:33;14.57;;;4.13;;
75297;SDS011;63896;45.990;18.688;2023-02-24T14:48:36;22.40;;;7.00;;
75297;SDS011;63896;45.990;18.688;2023-02-24T14:51:39;25.77;;;6.45;;
75297;SDS011;63896;45.990;18.688;2023-02-24T15:04:37;13.35;;;5.13;;
75297;SDS011;63896;45.990;18.688;2023-02-24T15:07:45;14.98;;;5.38;;
75297;SDS011;63896;45.990;18.688;2023-02-24T15:10:48;13.47;;;5.00;;
75297;SDS011;63896;45.990;18.688;2023-02-24T15:13:52;17.02;;;5.20;;
75297;SDS011;63896;45.990;18.688;2023-02-24T15:17:18;19.73;;;6.30;;
75297;SDS011;63896;45.990;18.688;2023-02-24T15:20:32;20.52;;;5.70;;
75297;SDS011;63896;45.990;18.688;2023-02-24T15:23:37;18.80;;;6.30;;
75297;SDS011;63896;45.990;18.688;2023-02-24T15:26:40;13.83;;;5.90;;
75297;SDS011;63896;45.990;18.688;2023-02-24T15:29:44;18.80;;;6.40;;
75297;SDS011;63896;45.990;18.688;2023-02-24T15:33:03;19.00;;;7.75;;
75297;SDS011;63896;45.990;18.688;2023-02-24T15:36:16;20.83;;;7.80;;
75297;SDS011;63896;45.990;18.688;2023-02-24T15:39:23;16.13;;;6.20;;
75297;SDS011;63896;45.990;18.688;2023-02-24T15:42:30;18.50;;;6.93;;
75297;SDS011;63896;45.990;18.688;2023-02-24T15:45:36;22.02;;;8.40;;
75297;SDS011;63896;45.990;18.688;2023-02-24T15:48:41;21.05;;;7.43;;
75297;SDS011;63896;45.990;18.688;2023-02-24T15:51:46;15.13;;;6.65;;
75297;SDS011;63896;45.990;18.688;2023-02-24T15:54:51;22.92;;;7.35;;
75297;SDS011;63896;45.990;18.688;2023-02-24T15:57:57;16.93;;;7.43;;
75297;SDS011;63896;45.990;18.688;2023-02-24T16:01:02;19.38;;;7.78;;
75297;SDS011;63896;45.990;18.688;2023-02-24T16:04:06;22.25;;;7.30;;
75297;SDS011;63896;45.990;18.688;2023-02-24T16:07:18;24.30;;;9.10;;
75297;SDS011;63896;45.990;18.688;2023-02-24T16:10:24;27.80;;;11.45;;
75297;SDS011;63896;45.990;18.688;2023-02-24T16:13:30;27.00;;;9.50;;
75297;SDS011;63896;45.990;18.688;2023-02-24T16:16:33;27.08;;;8.95;;
75297;SDS011;63896;45.990;18.688;2023-02-24T16:19:36;29.10;;;10.15;;
75297;SDS011;63896;45.990;18.688;2023-02-24T16:22:39;25.15;;;10.35;;
75297;SDS011;63896;45.990;18.688;2023-02-24T16:25:43;34.90;;;11.50;;
75297;SDS011;63896;45.990;18.688;2023-02-24T16:28:54;42.53;;;14.83;;
75297;SDS011;63896;45.990;18.688;2023-02-24T16:31:58;32.35;;;12.70;;
75297;SDS011;63896;45.990;18.688;2023-02-24T16:35:02;29.48;;;11.02;;
75297;SDS011;63896;45.990;18.688;2023-02-24T16:38:05;20.65;;;8.65;;
75297;SDS011;63896;45.990;18.688;2023-02-24T16:41:08;21.38;;;7.95;;
75297;SDS011;63896;45.990;18.688;2023-02-24T16:44:12;22.37;;;7.67;;
75297;SDS011;63896;45.990;18.688;2023-02-24T16:47:19;19.65;;;7.10;;
75297;SDS011;63896;45.990;18.688;2023-02-24T16:50:28;27.83;;;7.30;;
75297;SDS011;63896;45.990;18.688;2023-02-24T16:53:35;18.60;;;6.47;;
75297;SDS011;63896;45.990;18.688;2023-02-24T16:56:38;18.48;;;7.45;;
75297;SDS011;63896;45.990;18.688;2023-02-24T16:59:40;22.37;;;6.73;;
75297;SDS011;63896;45.990;18.688;2023-02-24T17:02:44;20.13;;;7.63;;
75297;SDS011;63896;45.990;18.688;2023-02-24T17:05:47;27.83;;;8.27;;
75297;SDS011;63896;45.990;18.688;2023-02-24T17:08:51;23.92;;;9.65;;
75297;SDS011;63896;45.990;18.688;2023-02-24T17:11:55;24.33;;;9.90;;
75297;SDS011;63896;45.990;18.688;2023-02-24T17:14:58;51.57;;;19.43;;
75297;SDS011;63896;45.990;18.688;2023-02-24T17:18:00;37.45;;;14.55;;
75297;SDS011;63896;45.990;18.688;2023-02-24T17:21:04;37.35;;;12.65;;
75297;SDS011;63896;45.990;18.688;2023-02-24T17:24:09;27.27;;;10.50;;
75297;SDS011;63896;45.990;18.688;2023-02-24T17:27:17;23.10;;;10.18;;
75297;SDS011;63896;45.990;18.688;2023-02-24T17:30:21;28.50;;;11.30;;
75297;SDS011;63896;45.990;18.688;2023-02-24T17:33:27;25.65;;;10.57;;
75297;SDS011;63896;45.990;18.688;2023-02-24T17:36:30;30.00;;;9.60;;
75297;SDS011;63896;45.990;18.688;2023-02-24T17:39:33;26.92;;;8.57;;
75297;SDS011;63896;45.990;18.688;2023-02-24T17:42:36;19.58;;;8.85;;
75297;SDS011;63896;45.990;18.688;2023-02-24T17:45:40;31.13;;;13.40;;
75297;SDS011;63896;45.990;18.688;2023-02-24T17:48:46;28.15;;;11.93;;
75297;SDS011;63896;45.990;18.688;2023-02-24T17:51:49;29.30;;;12.98;;
75297;SDS011;63896;45.990;18.688;2023-02-24T17:54:52;29.75;;;12.40;;
75297;SDS011;63896;45.990;18.688;2023-02-24T17:57:54;33.95;;;14.05;;
75297;SDS011;63896;45.990;18.688;2023-02-24T18:01:06;34.42;;;13.95;;
75297;SDS011;63896;45.990;18.688;2023-02-24T18:04:10;29.38;;;13.25;;
75297;SDS011;63896;45.990;18.688;2023-02-24T18:07:16;47.80;;;19.08;;
75297;SDS011;63896;45.990;18.688;2023-02-24T18:10:19;47.23;;;19.70;;
75297;SDS011;63896;45.990;18.688;2023-02-24T18:13:22;45.65;;;19.30;;
75297;SDS011;63896;45.990;18.688;2023-02-24T18:16:26;49.22;;;19.90;;
75297;SDS011;63896;45.990;18.688;2023-02-24T18:19:30;56.13;;;23.70;;
75297;SDS011;63896;45.990;18.688;2023-02-24T18:22:34;66.70;;;29.15;;
75297;SDS011;63896;45.990;18.688;2023-02-24T18:25:37;59.93;;;26.00;;
75297;SDS011;63896;45.990;18.688;2023-02-24T18:28:40;63.50;;;26.13;;
75297;SDS011;63896;45.990;18.688;2023-02-24T18:31:44;54.95;;;24.20;;
75297;SDS011;63896;45.990;18.688;2023-02-24T18:34:47;46.88;;;21.45;;
75297;SDS011;63896;45.990;18.688;2023-02-24T18:37:50;48.42;;;20.15;;
75297;SDS011;63896;45.990;18.688;2023-02-24T18:40:59;55.80;;;24.13;;
75297;SDS011;63896;45.990;18.688;2023-02-24T18:44:03;98.30;;;36.95;;
75297;SDS011;63896;45.990;18.688;2023-02-24T18:47:07;65.03;;;29.05;;
75297;SDS011;63896;45.990;18.688;2023-02-24T18:50:12;53.63;;;23.95;;
75297;SDS011;63896;45.990;18.688;2023-02-24T18:53:16;73.68;;;34.53;;
75297;SDS011;63896;45.990;18.688;2023-02-24T18:56:20;51.00;;;23.23;;
75297;SDS011;63896;45.990;18.688;2023-02-24T18:59:25;50.28;;;24.33;;
75297;SDS011;63896;45.990;18.688;2023-02-24T19:02:28;54.35;;;24.70;;
75297;SDS011;63896;45.990;18.688;2023-02-24T19:05:32;47.65;;;19.13;;
75297;SDS011;63896;45.990;18.688;2023-02-24T19:08:41;35.13;;;15.93;;
75297;SDS011;63896;45.990;18.688;2023-02-24T19:11:44;37.17;;;15.37;;
75297;SDS011;63896;45.990;18.688;2023-02-24T19:14:50;45.88;;;19.17;;
75297;SDS011;63896;45.990;18.688;2023-02-24T19:17:53;43.20;;;15.68;;
75297;SDS011;63896;45.990;18.688;2023-02-24T19:20:56;45.15;;;20.10;;
75297;SDS011;63896;45.990;18.688;2023-02-24T19:24:01;39.80;;;18.42;;
75297;SDS011;63896;45.990;18.688;2023-02-24T19:27:05;40.20;;;17.33;;
75297;SDS011;63896;45.990;18.688;2023-02-24T19:30:08;41.88;;;17.45;;
75297;SDS011;63896;45.990;18.688;2023-02-24T19:33:12;32.50;;;15.60;;
75297;SDS011;63896;45.990;18.688;2023-02-24T19:36:15;37.78;;;14.73;;
75297;SDS011;63896;45.990;18.688;2023-02-24T19:39:18;39.95;;;13.45;;
75297;SDS011;63896;45.990;18.688;2023-02-24T19:42:21;36.03;;;14.33;;
75297;SDS011;63896;45.990;18.688;2023-02-24T19:45:28;44.88;;;17.30;;
75297;SDS011;63896;45.990;18.688;2023-02-24T19:48:32;59.03;;;22.13;;
75297;SDS011;63896;45.990;18.688;2023-02-24T19:51:35;57.05;;;23.92;;
75297;SDS011;63896;45.990;18.688;2023-02-24T19:54:38;41.47;;;16.70;;
75297;SDS011;63896;45.990;18.688;2023-02-24T19:57:41;41.13;;;16.20;;
75297;SDS011;63896;45.990;18.688;2023-02-24T20:00:44;40.63;;;17.30;;
75297;SDS011;63896;45.990;18.688;2023-02-24T20:03:52;46.65;;;17.38;;
75297;SDS011;63896;45.990;18.688;2023-02-24T20:06:56;52.35;;;19.83;;
75297;SDS011;63896;45.990;18.688;2023-02-24T20:09:59;64.55;;;24.45;;
75297;SDS011;63896;45.990;18.688;2023-02-24T20:13:03;61.97;;;21.87;;
75297;SDS011;63896;45.990;18.688;2023-02-24T20:16:10;51.72;;;19.52;;
75297;SDS011;63896;45.990;18.688;2023-02-24T20:19:15;66.63;;;21.42;;
75297;SDS011;63896;45.990;18.688;2023-02-24T20:22:19;54.53;;;22.48;;
75297;SDS011;63896;45.990;18.688;2023-02-24T20:25:22;48.05;;;19.17;;